sensor_id;sensor_type;location;lat;lon;timestamp;pressure;altitude;pressure_sealevel;temperature;humidity
11190;BME280;5651;50.926;4.718;2023-02-28T00:00:30;102902.66;;;-2.35;62.22
11190;BME280;5651;50.926;4.718;2023-02-28T00:02:55;102904.19;;;-2.37;62.31
11190;BME280;5651;50.926;4.718;2023-02-28T00:05:23;102900.63;;;-2.39;62.61
11190;BME280;5651;50.926;4.718;2023-02-28T00:07:49;102897.94;;;-2.41;62.39
11190;BME280;5651;50.926;4.718;2023-02-28T00:10:18;102897.06;;;-2.41;62.11
11190;BME280;5651;50.926;4.718;2023-02-28T00:12:49;102900.38;;;-2.42;62.15
11190;BME280;5651;50.926;4.718;2023-02-28T00:15:15;102896.03;;;-2.43;62.42
11190;BME280;5651;50.926;4.718;2023-02-28T00:17:41;102895.25;;;-2.42;62.80
11190;BME280;5651;50.926;4.718;2023-02-28T00:20:08;102889.91;;;-2.45;62.66
11190;BME280;5651;50.926;4.718;2023-02-28T00:22:36;102896.69;;;-2.46;62.65
11190;BME280;5651;50.926;4.718;2023-02-28T00:25:03;102897.31;;;-2.48;62.49
11190;BME280;5651;50.926;4.718;2023-02-28T00:27:30;102892.09;;;-2.50;63.17
11190;BME280;5651;50.926;4.718;2023-02-28T00:29:55;102898.84;;;-2.50;63.72
11190;BME280;5651;50.926;4.718;2023-02-28T00:32:21;102905.63;;;-2.51;63.05
11190;BME280;5651;50.926;4.718;2023-02-28T00:34:48;102900.38;;;-2.52;62.87
11190;BME280;5651;50.926;4.718;2023-02-28T00:37:14;102896.81;;;-2.55;62.80
11190;BME280;5651;50.926;4.718;2023-02-28T00:39:40;102901.16;;;-2.53;63.21
11190;BME280;5651;50.926;4.718;2023-02-28T00:42:07;102896.81;;;-2.55;62.94
11190;BME280;5651;50.926;4.718;2023-02-28T00:44:33;102900.63;;;-2.49;67.33
11190;BME280;5651;50.926;4.718;2023-02-28T00:46:59;102900.53;;;-2.51;70.33
11190;BME280;5651;50.926;4.718;2023-02-28T00:49:26;102912.09;;;-2.44;74.00
11190;BME280;5651;50.926;4.718;2023-02-28T00:51:53;102901.66;;;-2.47;71.06
11190;BME280;5651;50.926;4.718;2023-02-28T00:54:20;102904.06;;;-2.49;68.04
11190;BME280;5651;50.926;4.718;2023-02-28T00:56:46;102901.50;;;-2.49;66.53
11190;BME280;5651;50.926;4.718;2023-02-28T00:59:15;102903.94;;;-2.50;66.04
11190;BME280;5651;50.926;4.718;2023-02-28T01:01:42;102898.47;;;-2.55;65.33
11190;BME280;5651;50.926;4.718;2023-02-28T01:04:08;102908.56;;;-2.57;65.75
11190;BME280;5651;50.926;4.718;2023-02-28T01:06:34;102911.75;;;-2.59;66.47
11190;BME280;5651;50.926;4.718;2023-02-28T01:09:00;102899.50;;;-2.63;65.50
11190;BME280;5651;50.926;4.718;2023-02-28T01:11:26;102908.56;;;-2.67;65.05
11190;BME280;5651;50.926;4.718;2023-02-28T01:13:51;102919.41;;;-2.69;65.07
11190;BME280;5651;50.926;4.718;2023-02-28T01:16:17;102913.16;;;-2.73;64.55
11190;BME280;5651;50.926;4.718;2023-02-28T01:18:43;102916.22;;;-2.77;64.74
11190;BME280;5651;50.926;4.718;2023-02-28T01:21:11;102918.50;;;-2.80;64.60
11190;BME280;5651;50.926;4.718;2023-02-28T01:23:38;102916.47;;;-2.84;64.46
11190;BME280;5651;50.926;4.718;2023-02-28T01:26:15;102912.78;;;-2.88;65.00
11190;BME280;5651;50.926;4.718;2023-02-28T01:28:42;102915.81;;;-2.92;64.95
11190;BME280;5651;50.926;4.718;2023-02-28T01:31:08;102916.34;;;-2.96;64.92
11190;BME280;5651;50.926;4.718;2023-02-28T01:33:34;102913.41;;;-3.01;65.12
11190;BME280;5651;50.926;4.718;2023-02-28T01:36:06;102919.13;;;-3.04;65.15
11190;BME280;5651;50.926;4.718;2023-02-28T01:38:33;102918.09;;;-3.06;64.71
11190;BME280;5651;50.926;4.718;2023-02-28T01:40:59;102910.06;;;-3.10;64.62
11190;BME280;5651;50.926;4.718;2023-02-28T01:43:26;102911.72;;;-3.11;65.07
11190;BME280;5651;50.926;4.718;2023-02-28T01:45:53;102909.78;;;-3.13;64.52
11190;BME280;5651;50.926;4.718;2023-02-28T01:48:22;102912.22;;;-3.15;64.88
11190;BME280;5651;50.926;4.718;2023-02-28T01:50:51;102906.09;;;-3.17;65.45
11190;BME280;5651;50.926;4.718;2023-02-28T01:53:24;102912.59;;;-3.21;64.87
11190;BME280;5651;50.926;4.718;2023-02-28T01:55:51;102908.50;;;-3.19;70.42
11190;BME280;5651;50.926;4.718;2023-02-28T01:58:18;102907.47;;;-3.21;67.56
11190;BME280;5651;50.926;4.718;2023-02-28T02:00:44;102905.72;;;-3.22;66.45
11190;BME280;5651;50.926;4.718;2023-02-28T02:03:13;102910.19;;;-3.19;68.37
11190;BME280;5651;50.926;4.718;2023-02-28T02:05:40;102898.19;;;-3.20;67.01
11190;BME280;5651;50.926;4.718;2023-02-28T02:08:13;102903.41;;;-3.19;66.45
11190;BME280;5651;50.926;4.718;2023-02-28T02:10:44;102895.53;;;-3.22;66.45
11190;BME280;5651;50.926;4.718;2023-02-28T02:18:43;102890.16;;;-3.25;65.23
11190;BME280;5651;50.926;4.718;2023-02-28T02:37:59;102874.81;;;-3.45;66.67
11190;BME280;5651;50.926;4.718;2023-02-28T02:40:35;102880.41;;;-3.50;66.14
11190;BME280;5651;50.926;4.718;2023-02-28T02:48:03;102873.91;;;-3.56;65.76
11190;BME280;5651;50.926;4.718;2023-02-28T02:50:35;102872.88;;;-3.58;66.36
11190;BME280;5651;50.926;4.718;2023-02-28T02:53:03;102872.59;;;-3.61;66.76
11190;BME280;5651;50.926;4.718;2023-02-28T02:55:34;102871.44;;;-3.65;67.09
11190;BME280;5651;50.926;4.718;2023-02-28T02:58:04;102872.06;;;-3.68;66.86
11190;BME280;5651;50.926;4.718;2023-02-28T03:00:36;102878.56;;;-3.71;67.68
11190;BME280;5651;50.926;4.718;2023-02-28T03:03:04;102877.53;;;-3.73;67.16
11190;BME280;5651;50.926;4.718;2023-02-28T03:05:47;102878.78;;;-3.78;67.09
11190;BME280;5651;50.926;4.718;2023-02-28T03:08:13;102871.66;;;-3.83;66.88
11190;BME280;5651;50.926;4.718;2023-02-28T03:10:41;102875.59;;;-3.86;66.87
11190;BME280;5651;50.926;4.718;2023-02-28T03:16:36;102877.97;;;-3.88;67.10
11190;BME280;5651;50.926;4.718;2023-02-28T03:22:27;102865.75;;;-3.92;66.99
11190;BME280;5651;50.926;4.718;2023-02-28T03:24:59;102865.63;;;-3.93;66.57
11190;BME280;5651;50.926;4.718;2023-02-28T03:27:29;102868.94;;;-3.94;67.46
11190;BME280;5651;50.926;4.718;2023-02-28T03:30:06;102875.53;;;-3.96;67.19
11190;BME280;5651;50.926;4.718;2023-02-28T03:33:09;102871.19;;;-3.98;67.62
11190;BME280;5651;50.926;4.718;2023-02-28T03:35:59;102870.94;;;-4.01;66.93
11190;BME280;5651;50.926;4.718;2023-02-28T03:38:34;102876.78;;;-4.02;67.59
11190;BME280;5651;50.926;4.718;2023-02-28T03:41:09;102877.25;;;-4.06;69.05
11190;BME280;5651;50.926;4.718;2023-02-28T03:43:40;102886.28;;;-4.09;68.68
11190;BME280;5651;50.926;4.718;2023-02-28T03:46:12;102890.22;;;-4.13;68.92
11190;BME280;5651;50.926;4.718;2023-02-28T03:48:51;102890.84;;;-4.16;67.63
11190;BME280;5651;50.926;4.718;2023-02-28T03:51:22;102889.69;;;-4.19;68.34
11190;BME280;5651;50.926;4.718;2023-02-28T03:54:13;102893.88;;;-4.20;67.47
11190;BME280;5651;50.926;4.718;2023-02-28T03:56:45;102893.72;;;-4.21;68.23
11190;BME280;5651;50.926;4.718;2023-02-28T03:59:17;102892.84;;;-4.22;67.71
11190;BME280;5651;50.926;4.718;2023-02-28T04:01:48;102889.38;;;-4.22;67.05
11190;BME280;5651;50.926;4.718;2023-02-28T04:04:15;102890.31;;;-4.22;66.94
11190;BME280;5651;50.926;4.718;2023-02-28T04:06:42;102886.50;;;-4.17;68.49
11190;BME280;5651;50.926;4.718;2023-02-28T04:09:11;102890.34;;;-4.11;67.78
11190;BME280;5651;50.926;4.718;2023-02-28T04:11:50;102887.44;;;-4.06;68.00
11190;BME280;5651;50.926;4.718;2023-02-28T04:14:19;102887.09;;;-4.00;67.71
11190;BME280;5651;50.926;4.718;2023-02-28T04:16:45;102888.38;;;-3.95;68.33
11190;BME280;5651;50.926;4.718;2023-02-28T04:19:12;102887.41;;;-3.87;68.78
11190;BME280;5651;50.926;4.718;2023-02-28T04:21:44;102877.75;;;-3.80;68.26
11190;BME280;5651;50.926;4.718;2023-02-28T04:24:14;102888.88;;;-3.70;68.96
11190;BME280;5651;50.926;4.718;2023-02-28T04:26:42;102890.44;;;-3.61;72.64
11190;BME280;5651;50.926;4.718;2023-02-28T04:29:10;102892.22;;;-3.60;71.95
11190;BME280;5651;50.926;4.718;2023-02-28T04:31:36;102897.59;;;-3.57;71.30
11190;BME280;5651;50.926;4.718;2023-02-28T04:34:03;102895.16;;;-3.56;70.96
11190;BME280;5651;50.926;4.718;2023-02-28T04:36:29;102891.88;;;-3.55;70.56
11190;BME280;5651;50.926;4.718;2023-02-28T04:38:54;102888.56;;;-3.54;70.39
11190;BME280;5651;50.926;4.718;2023-02-28T04:41:20;102899.91;;;-3.50;69.20
11190;BME280;5651;50.926;4.718;2023-02-28T04:43:47;102895.56;;;-3.51;69.36
11190;BME280;5651;50.926;4.718;2023-02-28T04:46:12;102903.34;;;-3.50;69.22
11190;BME280;5651;50.926;4.718;2023-02-28T04:48:39;102895.69;;;-3.50;69.23
11190;BME280;5651;50.926;4.718;2023-02-28T04:51:08;102895.69;;;-3.50;69.33
11190;BME280;5651;50.926;4.718;2023-02-28T04:53:36;102900.78;;;-3.50;69.25
11190;BME280;5651;50.926;4.718;2023-02-28T04:56:02;102898.25;;;-3.50;69.68
11190;BME280;5651;50.926;4.718;2023-02-28T04:58:27;102902.19;;;-3.53;69.44
11190;BME280;5651;50.926;4.718;2023-02-28T05:00:54;102910.72;;;-3.53;68.89
11190;BME280;5651;50.926;4.718;2023-02-28T05:03:20;102902.09;;;-3.44;76.32
11190;BME280;5651;50.926;4.718;2023-02-28T05:05:47;102896.38;;;-3.42;78.92
11190;BME280;5651;50.926;4.718;2023-02-28T05:08:13;102890.34;;;-3.42;75.20
11190;BME280;5651;50.926;4.718;2023-02-28T05:10:39;102898.28;;;-3.39;72.55
11190;BME280;5651;50.926;4.718;2023-02-28T05:13:05;102902.88;;;-3.35;73.24
11190;BME280;5651;50.926;4.718;2023-02-28T05:15:31;102915.88;;;-3.32;75.62
11190;BME280;5651;50.926;4.718;2023-02-28T05:17:56;102910.66;;;-3.33;76.75
11190;BME280;5651;50.926;4.718;2023-02-28T05:20:22;102911.31;;;-3.36;76.35
11190;BME280;5651;50.926;4.718;2023-02-28T05:22:49;102909.75;;;-3.34;76.00
11190;BME280;5651;50.926;4.718;2023-02-28T05:25:20;102907.34;;;-3.32;75.68
11190;BME280;5651;50.926;4.718;2023-02-28T05:27:47;102909.28;;;-3.30;74.78
11190;BME280;5651;50.926;4.718;2023-02-28T05:30:13;102913.09;;;-3.25;74.63
11190;BME280;5651;50.926;4.718;2023-02-28T05:32:40;102906.59;;;-3.21;75.39
11190;BME280;5651;50.926;4.718;2023-02-28T05:35:10;102905.09;;;-3.19;74.29
11190;BME280;5651;50.926;4.718;2023-02-28T05:37:38;102915.03;;;-3.12;73.82
11190;BME280;5651;50.926;4.718;2023-02-28T05:40:05;102917.06;;;-3.08;73.46
11190;BME280;5651;50.926;4.718;2023-02-28T05:42:32;102914.16;;;-3.02;73.41
11190;BME280;5651;50.926;4.718;2023-02-28T05:44:59;102909.56;;;-2.96;71.55
11190;BME280;5651;50.926;4.718;2023-02-28T05:47:24;102909.31;;;-2.89;72.11
11190;BME280;5651;50.926;4.718;2023-02-28T05:49:50;102913.28;;;-2.82;72.89
11190;BME280;5651;50.926;4.718;2023-02-28T05:52:17;102909.44;;;-2.77;72.78
11190;BME280;5651;50.926;4.718;2023-02-28T05:54:43;102909.84;;;-2.72;72.53
11190;BME280;5651;50.926;4.718;2023-02-28T05:57:08;102909.19;;;-2.69;71.98
11190;BME280;5651;50.926;4.718;2023-02-28T05:59:34;102916.22;;;-2.67;72.84
11190;BME280;5651;50.926;4.718;2023-02-28T06:02:00;102915.72;;;-2.63;72.98
11190;BME280;5651;50.926;4.718;2023-02-28T06:04:25;102920.16;;;-2.60;72.92
11190;BME280;5651;50.926;4.718;2023-02-28T06:06:51;102923.75;;;-2.58;74.50
11190;BME280;5651;50.926;4.718;2023-02-28T06:09:17;102909.19;;;-2.59;77.35
11190;BME280;5651;50.926;4.718;2023-02-28T06:11:43;102911.00;;;-2.58;76.17
11190;BME280;5651;50.926;4.718;2023-02-28T06:14:16;102921.19;;;-2.58;75.24
11190;BME280;5651;50.926;4.718;2023-02-28T06:16:42;102921.31;;;-2.57;75.35
11190;BME280;5651;50.926;4.718;2023-02-28T06:19:09;102917.09;;;-2.56;76.72
11190;BME280;5651;50.926;4.718;2023-02-28T06:21:35;102924.75;;;-2.56;76.67
11190;BME280;5651;50.926;4.718;2023-02-28T06:24:02;102927.44;;;-2.55;75.82
11190;BME280;5651;50.926;4.718;2023-02-28T06:26:29;102931.78;;;-2.53;75.36
11190;BME280;5651;50.926;4.718;2023-02-28T06:28:55;102925.13;;;-2.51;75.13
11190;BME280;5651;50.926;4.718;2023-02-28T06:31:21;102922.56;;;-2.51;73.87
11190;BME280;5651;50.926;4.718;2023-02-28T06:33:47;102927.94;;;-2.48;73.18
11190;BME280;5651;50.926;4.718;2023-02-28T06:36:15;102923.88;;;-2.46;73.43
11190;BME280;5651;50.926;4.718;2023-02-28T06:38:41;102933.44;;;-2.44;73.20
11190;BME280;5651;50.926;4.718;2023-02-28T06:41:07;102931.00;;;-2.42;74.15
11190;BME280;5651;50.926;4.718;2023-02-28T06:43:37;102933.81;;;-2.39;74.33
11190;BME280;5651;50.926;4.718;2023-02-28T06:46:05;102939.16;;;-2.36;74.51
11190;BME280;5651;50.926;4.718;2023-02-28T06:48:32;102934.31;;;-2.33;74.45
11190;BME280;5651;50.926;4.718;2023-02-28T06:51:05;102929.44;;;-2.30;74.94
11190;BME280;5651;50.926;4.718;2023-02-28T06:53:32;102932.16;;;-2.28;75.26
11190;BME280;5651;50.926;4.718;2023-02-28T06:55:58;102934.81;;;-2.27;75.27
11190;BME280;5651;50.926;4.718;2023-02-28T06:58:24;102934.06;;;-2.26;75.48
11190;BME280;5651;50.926;4.718;2023-02-28T07:00:51;102932.38;;;-2.25;74.87
11190;BME280;5651;50.926;4.718;2023-02-28T07:03:18;102942.47;;;-2.27;75.25
11190;BME280;5651;50.926;4.718;2023-02-28T07:05:44;102941.59;;;-2.27;74.55
11190;BME280;5651;50.926;4.718;2023-02-28T07:08:11;102944.28;;;-2.26;75.82
11190;BME280;5651;50.926;4.718;2023-02-28T07:10:37;102941.72;;;-2.26;75.71
11190;BME280;5651;50.926;4.718;2023-02-28T07:13:04;102945.91;;;-2.26;75.07
11190;BME280;5651;50.926;4.718;2023-02-28T07:15:30;102938.25;;;-2.26;74.44
11190;BME280;5651;50.926;4.718;2023-02-28T07:17:56;102952.81;;;-2.25;74.35
11190;BME280;5651;50.926;4.718;2023-02-28T07:20:22;102943.50;;;-2.25;73.95
11190;BME280;5651;50.926;4.718;2023-02-28T07:22:49;102954.72;;;-2.23;73.93
11190;BME280;5651;50.926;4.718;2023-02-28T07:25:25;102952.44;;;-2.19;73.66
11190;BME280;5651;50.926;4.718;2023-02-28T07:27:51;102948.34;;;-2.17;73.69
11190;BME280;5651;50.926;4.718;2023-02-28T07:30:17;102957.25;;;-2.12;72.83
11190;BME280;5651;50.926;4.718;2023-02-28T07:32:43;102961.88;;;-2.08;72.65
11190;BME280;5651;50.926;4.718;2023-02-28T07:35:09;102964.66;;;-2.05;72.44
11190;BME280;5651;50.926;4.718;2023-02-28T07:37:34;102961.72;;;-1.99;72.11
11190;BME280;5651;50.926;4.718;2023-02-28T07:40:05;102960.41;;;-1.94;72.53
11190;BME280;5651;50.926;4.718;2023-02-28T07:42:35;102971.91;;;-1.89;72.18
11190;BME280;5651;50.926;4.718;2023-02-28T07:45:01;102961.25;;;-1.73;75.46
11190;BME280;5651;50.926;4.718;2023-02-28T07:47:29;102952.81;;;-1.72;73.86
11190;BME280;5651;50.926;4.718;2023-02-28T07:49:55;102959.44;;;-1.64;73.70
11190;BME280;5651;50.926;4.718;2023-02-28T07:52:21;102948.16;;;-1.55;75.62
11190;BME280;5651;50.926;4.718;2023-02-28T07:54:49;102945.94;;;-1.51;73.78
11190;BME280;5651;50.926;4.718;2023-02-28T07:57:15;102948.25;;;-1.44;73.12
11190;BME280;5651;50.926;4.718;2023-02-28T07:59:41;102957.53;;;-1.34;74.53
11190;BME280;5651;50.926;4.718;2023-02-28T08:02:14;102954.13;;;-1.22;75.86
11190;BME280;5651;50.926;4.718;2023-02-28T08:04:40;102956.63;;;-1.12;75.45
11190;BME280;5651;50.926;4.718;2023-02-28T08:07:06;102950.91;;;-0.98;77.29
11190;BME280;5651;50.926;4.718;2023-02-28T08:09:32;102949.66;;;-0.81;80.39
11190;BME280;5651;50.926;4.718;2023-02-28T08:11:58;102955.06;;;-0.66;79.18
11190;BME280;5651;50.926;4.718;2023-02-28T08:14:23;102949.81;;;-0.55;79.03
11190;BME280;5651;50.926;4.718;2023-02-28T08:16:49;102954.41;;;-0.51;76.19
11190;BME280;5651;50.926;4.718;2023-02-28T08:19:15;102952.22;;;-0.35;76.25
11190;BME280;5651;50.926;4.718;2023-02-28T08:21:40;102956.22;;;-0.26;76.21
11190;BME280;5651;50.926;4.718;2023-02-28T08:24:07;102951.13;;;-0.14;77.63
11190;BME280;5651;50.926;4.718;2023-02-28T08:26:32;102953.06;;;0.00;79.17
11190;BME280;5651;50.926;4.718;2023-02-28T08:28:58;102954.94;;;0.03;77.30
11190;BME280;5651;50.926;4.718;2023-02-28T08:31:24;102951.91;;;0.20;75.06
11190;BME280;5651;50.926;4.718;2023-02-28T08:33:50;102959.03;;;0.36;79.29
11190;BME280;5651;50.926;4.718;2023-02-28T08:36:17;102957.00;;;0.44;77.51
11190;BME280;5651;50.926;4.718;2023-02-28T08:38:43;102962.03;;;0.54;75.79
11190;BME280;5651;50.926;4.718;2023-02-28T08:41:11;102963.66;;;0.66;75.39
11190;BME280;5651;50.926;4.718;2023-02-28T08:43:39;102959.28;;;0.76;77.09
11190;BME280;5651;50.926;4.718;2023-02-28T08:46:05;102962.03;;;0.91;76.76
11190;BME280;5651;50.926;4.718;2023-02-28T08:48:34;102965.72;;;0.95;76.29
11190;BME280;5651;50.926;4.718;2023-02-28T08:51:06;102960.31;;;1.04;76.64
11190;BME280;5651;50.926;4.718;2023-02-28T08:53:33;102967.47;;;1.08;76.40
11190;BME280;5651;50.926;4.718;2023-02-28T08:56:01;102963.16;;;1.20;77.99
11190;BME280;5651;50.926;4.718;2023-02-28T08:58:27;102964.16;;;1.22;77.31
11190;BME280;5651;50.926;4.718;2023-02-28T09:00:53;102959.44;;;1.29;77.20
11190;BME280;5651;50.926;4.718;2023-02-28T09:03:19;102954.28;;;1.29;77.04
11190;BME280;5651;50.926;4.718;2023-02-28T09:06:12;102955.03;;;1.39;76.92
11190;BME280;5651;50.926;4.718;2023-02-28T09:08:38;102954.94;;;1.38;75.63
11190;BME280;5651;50.926;4.718;2023-02-28T09:11:04;102948.72;;;1.48;74.58
11190;BME280;5651;50.926;4.718;2023-02-28T09:13:30;102950.59;;;1.50;74.85
11190;BME280;5651;50.926;4.718;2023-02-28T09:15:58;102946.88;;;1.58;73.53
11190;BME280;5651;50.926;4.718;2023-02-28T09:18:25;102946.38;;;1.64;73.34
11190;BME280;5651;50.926;4.718;2023-02-28T09:20:52;102948.34;;;1.68;72.32
11190;BME280;5651;50.926;4.718;2023-02-28T09:23:17;102955.00;;;1.78;72.88
11190;BME280;5651;50.926;4.718;2023-02-28T09:25:48;102945.53;;;1.77;72.33
11190;BME280;5651;50.926;4.718;2023-02-28T09:28:14;102931.69;;;1.88;72.69
11190;BME280;5651;50.926;4.718;2023-02-28T09:30:42;102936.81;;;2.02;70.47
11190;BME280;5651;50.926;4.718;2023-02-28T09:33:07;102936.72;;;2.00;70.10
11190;BME280;5651;50.926;4.718;2023-02-28T09:35:33;102933.56;;;2.04;69.57
11190;BME280;5651;50.926;4.718;2023-02-28T09:37:59;102934.53;;;2.06;69.93
11190;BME280;5651;50.926;4.718;2023-02-28T09:40:25;102944.66;;;2.17;70.35
11190;BME280;5651;50.926;4.718;2023-02-28T09:42:53;102940.09;;;2.26;69.89
11190;BME280;5651;50.926;4.718;2023-02-28T09:45:36;102937.63;;;2.28;68.65
11190;BME280;5651;50.926;4.718;2023-02-28T09:48:12;102937.13;;;2.33;69.67
11190;BME280;5651;50.926;4.718;2023-02-28T09:50:52;102940.38;;;2.44;68.93
11190;BME280;5651;50.926;4.718;2023-02-28T09:53:26;102936.38;;;2.49;68.87
11190;BME280;5651;50.926;4.718;2023-02-28T09:56:15;102930.81;;;2.57;67.88
11190;BME280;5651;50.926;4.718;2023-02-28T09:58:49;102928.84;;;2.66;67.26
11190;BME280;5651;50.926;4.718;2023-02-28T10:01:21;102928.75;;;2.64;65.59
11190;BME280;5651;50.926;4.718;2023-02-28T10:03:57;102927.34;;;2.69;65.41
11190;BME280;5651;50.926;4.718;2023-02-28T10:06:38;102921.91;;;2.65;64.51
11190;BME280;5651;50.926;4.718;2023-02-28T10:09:36;102923.19;;;2.72;63.01
11190;BME280;5651;50.926;4.718;2023-02-28T10:12:04;102912.75;;;2.70;62.94
11190;BME280;5651;50.926;4.718;2023-02-28T10:14:33;102925.94;;;2.75;59.67
11190;BME280;5651;50.926;4.718;2023-02-28T10:17:12;102930.00;;;2.71;60.82
11190;BME280;5651;50.926;4.718;2023-02-28T10:19:47;102925.00;;;2.88;60.91
11190;BME280;5651;50.926;4.718;2023-02-28T10:22:38;102926.94;;;2.92;62.12
11190;BME280;5651;50.926;4.718;2023-02-28T10:25:26;102922.41;;;2.88;59.56
11190;BME280;5651;50.926;4.718;2023-02-28T10:28:10;102917.97;;;2.85;58.89
11190;BME280;5651;50.926;4.718;2023-02-28T10:30:53;102923.00;;;2.97;58.92
11190;BME280;5651;50.926;4.718;2023-02-28T10:35:51;102917.84;;;3.12;61.26
11190;BME280;5651;50.926;4.718;2023-02-28T10:38:21;102910.59;;;3.20;59.26
11190;BME280;5651;50.926;4.718;2023-02-28T10:40:47;102917.69;;;3.24;58.62
11190;BME280;5651;50.926;4.718;2023-02-28T10:45:39;102911.84;;;3.26;56.85
11190;BME280;5651;50.926;4.718;2023-02-28T10:50:44;102906.34;;;3.50;58.05
11190;BME280;5651;50.926;4.718;2023-02-28T10:55:36;102903.78;;;3.65;57.21
11190;BME280;5651;50.926;4.718;2023-02-28T10:58:02;102898.00;;;3.54;56.84
11190;BME280;5651;50.926;4.718;2023-02-28T11:00:35;102899.41;;;3.64;56.34
11190;BME280;5651;50.926;4.718;2023-02-28T11:03:01;102895.47;;;3.71;57.24
11190;BME280;5651;50.926;4.718;2023-02-28T11:05:32;102885.13;;;3.54;53.59
11190;BME280;5651;50.926;4.718;2023-02-28T11:08:06;102880.56;;;3.50;54.12
11190;BME280;5651;50.926;4.718;2023-02-28T11:10:36;102892.09;;;3.72;54.85
11190;BME280;5651;50.926;4.718;2023-02-28T11:13:02;102890.97;;;3.67;53.92
11190;BME280;5651;50.926;4.718;2023-02-28T11:15:33;102876.63;;;3.72;53.76
11190;BME280;5651;50.926;4.718;2023-02-28T11:18:01;102887.22;;;3.76;52.50
11190;BME280;5651;50.926;4.718;2023-02-28T11:20:30;102876.13;;;3.62;51.33
11190;BME280;5651;50.926;4.718;2023-02-28T11:22:58;102878.41;;;3.88;53.32
11190;BME280;5651;50.926;4.718;2023-02-28T11:25:29;102879.00;;;3.99;53.54
11190;BME280;5651;50.926;4.718;2023-02-28T11:27:58;102866.47;;;4.21;54.77
11190;BME280;5651;50.926;4.718;2023-02-28T11:32:53;102867.13;;;4.34;51.97
11190;BME280;5651;50.926;4.718;2023-02-28T11:35:39;102859.69;;;4.23;50.91
11190;BME280;5651;50.926;4.718;2023-02-28T11:38:11;102849.53;;;4.26;51.77
11190;BME280;5651;50.926;4.718;2023-02-28T11:43:47;102861.59;;;4.59;52.21
11190;BME280;5651;50.926;4.718;2023-02-28T11:52:45;102860.03;;;5.12;53.56
11190;BME280;5651;50.926;4.718;2023-02-28T12:08:26;102838.69;;;6.84;49.54
11190;BME280;5651;50.926;4.718;2023-02-28T12:20:05;102826.84;;;8.67;46.75
11190;BME280;5651;50.926;4.718;2023-02-28T12:25:44;102807.13;;;9.26;46.62
11190;BME280;5651;50.926;4.718;2023-02-28T12:28:16;102807.88;;;9.76;45.47
11190;BME280;5651;50.926;4.718;2023-02-28T12:30:51;102797.09;;;9.93;44.18
11190;BME280;5651;50.926;4.718;2023-02-28T12:33:22;102797.19;;;10.58;45.30
11190;BME280;5651;50.926;4.718;2023-02-28T12:35:55;102800.53;;;11.20;45.40
11190;BME280;5651;50.926;4.718;2023-02-28T12:38:26;102788.91;;;11.07;42.51
11190;BME280;5651;50.926;4.718;2023-02-28T12:40:57;102785.53;;;10.44;40.50
11190;BME280;5651;50.926;4.718;2023-02-28T12:43:28;102783.06;;;10.50;39.95
11190;BME280;5651;50.926;4.718;2023-02-28T12:45:59;102783.63;;;11.42;43.21
11190;BME280;5651;50.926;4.718;2023-02-28T12:48:46;102784.88;;;11.20;40.13
11190;BME280;5651;50.926;4.718;2023-02-28T12:51:15;102769.56;;;12.15;42.08
11190;BME280;5651;50.926;4.718;2023-02-28T13:02:24;102776.97;;;10.48;38.56
11190;BME280;5651;50.926;4.718;2023-02-28T13:05:00;102780.06;;;11.77;41.42
11190;BME280;5651;50.926;4.718;2023-02-28T13:10:24;102775.59;;;10.96;37.34
11190;BME280;5651;50.926;4.718;2023-02-28T13:12:53;102773.44;;;10.15;37.97
11190;BME280;5651;50.926;4.718;2023-02-28T13:15:26;102773.72;;;10.26;37.95
11190;BME280;5651;50.926;4.718;2023-02-28T13:17:58;102762.19;;;10.82;39.49
11190;BME280;5651;50.926;4.718;2023-02-28T13:20:35;102768.41;;;11.61;39.26
11190;BME280;5651;50.926;4.718;2023-02-28T13:23:01;102762.31;;;10.53;37.65
11190;BME280;5651;50.926;4.718;2023-02-28T13:28:00;102764.72;;;10.45;37.18
11190;BME280;5651;50.926;4.718;2023-02-28T13:33:37;102765.50;;;10.43;38.75
11190;BME280;5651;50.926;4.718;2023-02-28T13:36:29;102766.16;;;11.38;36.89
11190;BME280;5651;50.926;4.718;2023-02-28T13:38:59;102761.19;;;11.49;37.23
11190;BME280;5651;50.926;4.718;2023-02-28T13:44:11;102760.94;;;10.36;36.54
11190;BME280;5651;50.926;4.718;2023-02-28T13:52:14;102759.94;;;11.33;37.65
11190;BME280;5651;50.926;4.718;2023-02-28T13:58:09;102755.72;;;12.66;36.57
11190;BME280;5651;50.926;4.718;2023-02-28T14:06:31;102740.44;;;12.93;37.48
11190;BME280;5651;50.926;4.718;2023-02-28T14:11:35;102755.47;;;11.67;35.08
11190;BME280;5651;50.926;4.718;2023-02-28T14:14:03;102744.00;;;10.84;34.73
11190;BME280;5651;50.926;4.718;2023-02-28T14:16:50;102743.38;;;11.70;36.01
11190;BME280;5651;50.926;4.718;2023-02-28T14:19:25;102742.03;;;11.91;35.77
11190;BME280;5651;50.926;4.718;2023-02-28T14:27:57;102727.28;;;12.36;35.64
11190;BME280;5651;50.926;4.718;2023-02-28T14:33:31;102724.69;;;12.38;35.50
11190;BME280;5651;50.926;4.718;2023-02-28T14:36:05;102720.50;;;12.99;34.84
11190;BME280;5651;50.926;4.718;2023-02-28T14:38:54;102730.75;;;12.35;36.00
11190;BME280;5651;50.926;4.718;2023-02-28T14:41:31;102725.66;;;12.43;35.76
11190;BME280;5651;50.926;4.718;2023-02-28T14:44:01;102718.81;;;13.02;36.38
11190;BME280;5651;50.926;4.718;2023-02-28T14:46:38;102729.63;;;13.89;37.33
11190;BME280;5651;50.926;4.718;2023-02-28T14:49:06;102737.44;;;11.79;34.61
11190;BME280;5651;50.926;4.718;2023-02-28T14:51:35;102723.28;;;13.09;35.85
11190;BME280;5651;50.926;4.718;2023-02-28T14:54:02;102722.63;;;12.70;34.62
11190;BME280;5651;50.926;4.718;2023-02-28T14:56:34;102730.16;;;12.04;36.89
11190;BME280;5651;50.926;4.718;2023-02-28T14:59:00;102722.19;;;12.44;35.21
11190;BME280;5651;50.926;4.718;2023-02-28T15:01:26;102724.66;;;12.34;35.35
11190;BME280;5651;50.926;4.718;2023-02-28T15:04:16;102717.72;;;12.87;35.96
11190;BME280;5651;50.926;4.718;2023-02-28T15:06:44;102725.25;;;12.70;34.59
11190;BME280;5651;50.926;4.718;2023-02-28T15:09:17;102720.50;;;12.98;35.52
11190;BME280;5651;50.926;4.718;2023-02-28T15:11:50;102725.28;;;13.25;34.90
11190;BME280;5651;50.926;4.718;2023-02-28T15:14:20;102718.19;;;12.64;34.05
11190;BME280;5651;50.926;4.718;2023-02-28T15:16:55;102730.13;;;13.02;35.90
11190;BME280;5651;50.926;4.718;2023-02-28T15:19:26;102724.53;;;13.37;34.40
11190;BME280;5651;50.926;4.718;2023-02-28T15:26:58;102726.53;;;13.52;35.25